Time;durP1;ratioP1;P1;durP2;ratioP2;P2;SDS_P1;SDS_P2;PMS_P1;PMS_P2;Temp;Humidity;BMP_temperature;BMP_pressure;BME280_temperature;BME280_humidity;BME280_pressure;Samples;Min_cycle;Max_cycle;Signal;HPM_P1;HPM_P2
2022/06/26 00:00:01;;;;;;;3.33;1.90;;;22.90;56.10;;;;;;5080796;28;20515;-50
2022/06/26 00:02:28;;;;;;;4.85;2.25;;;22.80;56.50;;;;;;5078719;28;20058;-52
2022/06/26 00:04:56;;;;;;;4.28;2.33;;;22.80;56.70;;;;;;5083547;28;20439;-57
2022/06/26 00:07:23;;;;;;;4.95;2.50;;;22.70;57.10;;;;;;5081109;28;20063;-50
2022/06/26 00:09:51;;;;;;;4.15;2.25;;;22.60;57.50;;;;;;5081970;28;20052;-54
2022/06/26 00:12:20;;;;;;;4.57;2.45;;;22.50;57.70;;;;;;5080499;28;20056;-53
2022/06/26 00:14:47;;;;;;;4.18;2.90;;;22.40;58.30;;;;;;5079725;28;20052;-54
2022/06/26 00:17:15;;;;;;;9.98;2.97;;;22.30;58.50;;;;;;5082555;28;20408;-52
2022/06/26 00:19:42;;;;;;;4.38;2.42;;;22.20;58.70;;;;;;5081773;28;20408;-53
2022/06/26 00:22:10;;;;;;;3.42;2.65;;;22.20;58.90;;;;;;5080490;28;20048;-50
2022/06/26 00:24:38;;;;;;;3.67;2.30;;;22.10;59.00;;;;;;5082394;28;21206;-51
2022/06/26 00:27:06;;;;;;;3.30;2.10;;;22.00;59.20;;;;;;5082498;28;20064;-51
2022/06/26 00:29:35;;;;;;;3.80;2.80;;;22.00;59.20;;;;;;5081731;28;20060;-52
2022/06/26 00:32:06;;;;;;;3.10;2.13;;;22.00;59.40;;;;;;5079304;28;20051;-49
2022/06/26 00:34:33;;;;;;;2.33;2.10;;;22.00;59.40;;;;;;5079000;28;20059;-50
2022/06/26 00:37:01;;;;;;;2.83;1.92;;;22.00;59.40;;;;;;5081662;28;20407;-56
2022/06/26 00:39:28;;;;;;;4.63;1.90;;;22.00;59.30;;;;;;5083175;28;20059;-51
2022/06/26 00:41:56;;;;;;;4.22;2.60;;;22.00;59.30;;;;;;5078818;28;20052;-49
2022/06/26 00:44:25;;;;;;;2.75;2.00;;;22.00;59.40;;;;;;5078038;28;20412;-51
2022/06/26 00:46:54;;;;;;;5.47;2.13;;;22.00;59.50;;;;;;5081649;28;20060;-51
2022/06/26 00:49:22;;;;;;;2.65;2.05;;;22.00;59.40;;;;;;5077941;28;20502;-55
2022/06/26 00:51:52;;;;;;;3.40;1.92;;;22.00;59.50;;;;;;5076394;28;20055;-49
2022/06/26 00:54:20;;;;;;;4.30;2.70;;;22.00;59.50;;;;;;5082229;28;20499;-52
2022/06/26 00:56:48;;;;;;;3.45;2.30;;;22.10;59.50;;;;;;5081491;28;20435;-48
2022/06/26 00:59:16;;;;;;;2.90;1.92;;;22.10;59.50;;;;;;5079424;28;20465;-49
2022/06/26 01:01:43;;;;;;;3.28;2.55;;;22.10;59.50;;;;;;5078021;28;20510;-52
2022/06/26 01:04:12;;;;;;;2.92;2.33;;;22.10;59.60;;;;;;5080526;28;20052;-48
2022/06/26 01:06:40;;;;;;;2.78;2.10;;;22.10;59.60;;;;;;5081733;28;20419;-51
2022/06/26 01:09:07;;;;;;;3.70;2.22;;;22.10;59.60;;;;;;5080732;28;20052;-52
2022/06/26 01:11:35;;;;;;;2.58;2.13;;;22.10;59.60;;;;;;5079936;28;20063;-52
2022/06/26 01:14:03;;;;;;;5.72;2.28;;;22.10;59.60;;;;;;5080402;28;20412;-54
2022/06/26 01:16:31;;;;;;;4.15;2.58;;;22.10;59.60;;;;;;5074662;28;21388;-54
2022/06/26 01:19:00;;;;;;;3.35;2.50;;;22.10;59.70;;;;;;5081493;28;20063;-49
2022/06/26 01:21:30;;;;;;;4.28;2.35;;;22.10;59.70;;;;;;5076254;28;20044;-53
2022/06/26 01:23:59;;;;;;;3.42;2.33;;;22.10;59.70;;;;;;5081685;28;20054;-57
2022/06/26 01:26:27;;;;;;;3.72;2.42;;;22.10;59.70;;;;;;5077195;28;20067;-54
2022/06/26 01:28:54;;;;;;;6.65;2.58;;;22.00;59.70;;;;;;5079213;28;20044;-56
2022/06/26 01:31:22;;;;;;;4.72;2.38;;;22.00;59.70;;;;;;5075266;28;20063;-55
2022/06/26 01:33:50;;;;;;;2.97;2.50;;;22.00;59.70;;;;;;5078580;28;20052;-50
2022/06/26 01:36:17;;;;;;;4.88;2.90;;;22.00;59.70;;;;;;5081012;28;20056;-51
2022/06/26 01:38:45;;;;;;;3.22;2.50;;;22.00;59.80;;;;;;5075784;28;21128;-55
2022/06/26 01:41:14;;;;;;;2.88;1.83;;;22.00;59.70;;;;;;5078653;28;20067;-51
2022/06/26 01:43:41;;;;;;;2.30;1.75;;;22.00;59.60;;;;;;5078566;28;20618;-52
2022/06/26 01:46:09;;;;;;;2.75;1.70;;;22.00;59.60;;;;;;5078215;28;20320;-48
2022/06/26 01:48:38;;;;;;;2.65;1.67;;;21.90;59.40;;;;;;5081461;28;20499;-49
2022/06/26 01:51:07;;;;;;;2.25;1.30;;;21.90;59.40;;;;;;5077572;28;20055;-55
2022/06/26 01:53:34;;;;;;;2.97;1.63;;;21.90;59.30;;;;;;5081093;28;20431;-49
2022/06/26 01:56:02;;;;;;;2.15;1.40;;;21.90;59.20;;;;;;5079023;28;20547;-55
2022/06/26 01:58:32;;;;;;;2.60;1.38;;;21.80;59.10;;;;;;5079835;28;20059;-53
2022/06/26 02:01:00;;;;;;;2.00;1.40;;;21.80;59.20;;;;;;5076666;28;20052;-51
2022/06/26 02:03:28;;;;;;;1.13;1.08;;;21.80;59.10;;;;;;5081985;28;20055;-48
2022/06/26 02:05:56;;;;;;;1.10;1.00;;;21.80;58.90;;;;;;5080877;28;20495;-50
2022/06/26 02:08:24;;;;;;;1.42;1.00;;;21.70;58.90;;;;;;5081374;28;20071;-54
2022/06/26 02:13:39;;;;;;;2.22;1.00;;;21.70;58.80;;;;;;5080870;28;20411;-50
2022/06/26 02:16:09;;;;;;;4.20;0.88;;;21.70;58.70;;;;;;5076176;28;20063;-50
2022/06/26 02:18:38;;;;;;;1.98;0.90;;;21.60;58.70;;;;;;5081691;28;20063;-54
2022/06/26 02:21:07;;;;;;;1.50;1.10;;;21.60;58.70;;;;;;5079177;28;20066;-51
2022/06/26 02:23:36;;;;;;;4.78;0.95;;;21.60;58.70;;;;;;5081302;28;20059;-51
2022/06/26 02:26:04;;;;;;;1.75;0.95;;;21.60;58.60;;;;;;5080492;28;20063;-50
2022/06/26 02:28:31;;;;;;;2.58;1.10;;;21.50;58.60;;;;;;5080189;28;20667;-50
2022/06/26 02:31:00;;;;;;;1.10;0.98;;;21.50;58.60;;;;;;5074007;28;20514;-51
2022/06/26 02:33:28;;;;;;;2.35;0.90;;;21.40;58.40;;;;;;5078590;28;20066;-50
2022/06/26 02:35:56;;;;;;;1.20;1.10;;;21.40;58.50;;;;;;5078180;28;20060;-56
2022/06/26 02:38:23;;;;;;;2.45;0.90;;;21.40;58.50;;;;;;5078844;28;20048;-50
2022/06/26 02:40:51;;;;;;;1.08;0.77;;;21.40;58.60;;;;;;5078321;28;20052;-51
2022/06/26 02:43:19;;;;;;;4.15;0.98;;;21.30;58.70;;;;;;5076544;28;20490;-49
2022/06/26 02:45:47;;;;;;;1.15;0.88;;;21.30;58.80;;;;;;5077423;28;20052;-57
2022/06/26 02:48:16;;;;;;;2.05;1.13;;;21.30;58.90;;;;;;5081224;28;20138;-51
2022/06/26 02:50:43;;;;;;;1.50;0.95;;;21.30;59.10;;;;;;5078536;28;20063;-49
2022/06/26 02:53:11;;;;;;;4.22;1.27;;;21.20;59.10;;;;;;5079759;28;20055;-50
2022/06/26 02:55:39;;;;;;;2.60;0.98;;;21.20;59.00;;;;;;5079441;28;20415;-52
2022/06/26 02:58:06;;;;;;;3.03;1.10;;;21.20;59.10;;;;;;5082378;28;20207;-49
2022/06/26 03:00:34;;;;;;;3.60;1.10;;;21.20;59.10;;;;;;5074495;28;20399;-51
2022/06/26 03:03:02;;;;;;;2.38;0.90;;;21.20;59.20;;;;;;5076845;28;20648;-49
2022/06/26 03:05:32;;;;;;;1.98;0.90;;;21.10;59.30;;;;;;5084750;28;20052;-48
2022/06/26 03:08:00;;;;;;;1.88;1.23;;;21.10;59.40;;;;;;5082506;28;20052;-51
2022/06/26 03:10:27;;;;;;;1.27;0.82;;;21.10;59.40;;;;;;5081556;28;20554;-53
2022/06/26 03:12:55;;;;;;;2.17;0.85;;;21.10;59.50;;;;;;5079789;28;20507;-56
2022/06/26 03:15:23;;;;;;;1.77;0.93;;;21.10;59.40;;;;;;5076393;28;20592;-50
2022/06/26 03:17:50;;;;;;;2.13;0.98;;;21.20;59.50;;;;;;5081650;28;20058;-50
2022/06/26 03:20:19;;;;;;;1.15;0.70;;;21.10;59.40;;;;;;5085069;28;20071;-51
2022/06/26 03:22:50;;;;;;;0.70;0.70;;;21.10;59.50;;;;;;5083529;28;20423;-50
2022/06/26 03:25:17;;;;;;;0.98;0.60;;;21.10;59.40;;;;;;5084746;28;20063;-49
2022/06/26 03:27:45;;;;;;;1.10;0.82;;;21.10;59.40;;;;;;5084133;28;20056;-51
2022/06/26 03:30:13;;;;;;;0.93;0.80;;;21.10;59.30;;;;;;5080869;28;20052;-53
2022/06/26 03:32:41;;;;;;;3.40;0.90;;;21.10;59.30;;;;;;5083637;28;20064;-49
2022/06/26 03:35:10;;;;;;;1.88;0.85;;;21.10;59.30;;;;;;5083410;28;20399;-48
2022/06/26 03:37:37;;;;;;;1.80;1.00;;;21.10;59.20;;;;;;5084514;28;20064;-49
2022/06/26 03:40:08;;;;;;;1.80;1.17;;;21.00;59.20;;;;;;5083000;28;20048;-48
2022/06/26 03:42:36;;;;;;;2.35;1.08;;;21.00;59.20;;;;;;5078376;28;20052;-55
2022/06/26 03:45:04;;;;;;;1.35;1.00;;;21.00;59.30;;;;;;5080188;28;20056;-56
2022/06/26 03:47:33;;;;;;;3.20;1.20;;;21.00;59.40;;;;;;5077270;28;20060;-53
2022/06/26 03:50:01;;;;;;;8.18;1.60;;;21.00;59.50;;;;;;5083744;28;20062;-48
2022/06/26 03:52:28;;;;;;;1.75;1.00;;;20.90;59.50;;;;;;5082716;28;20863;-52
2022/06/26 03:54:56;;;;;;;1.90;1.02;;;20.90;59.70;;;;;;5077758;28;20502;-55
2022/06/26 03:57:25;;;;;;;1.77;0.90;;;21.00;59.80;;;;;;5079780;28;20056;-52
2022/06/26 03:59:52;;;;;;;2.10;1.25;;;21.00;59.80;;;;;;5081877;28;20384;-51
2022/06/26 04:02:20;;;;;;;2.35;0.93;;;20.90;59.90;;;;;;5080249;28;20056;-48
2022/06/26 04:04:47;;;;;;;1.98;1.20;;;21.00;60.20;;;;;;5083932;28;20484;-50
2022/06/26 04:07:15;;;;;;;2.63;1.50;;;21.00;60.10;;;;;;5082152;28;20047;-49
2022/06/26 04:09:42;;;;;;;4.68;3.13;;;21.00;60.10;;;;;;5083161;28;20056;-51
2022/06/26 04:12:10;;;;;;;4.78;1.60;;;21.00;60.80;;;;;;5080252;28;20078;-48
2022/06/26 04:14:39;;;;;;;4.63;1.35;;;21.00;60.10;;;;;;5078068;28;20059;-49
2022/06/26 04:17:06;;;;;;;2.78;1.30;;;21.00;60.00;;;;;;5074756;28;20061;-48
2022/06/26 04:19:33;;;;;;;2.08;1.30;;;21.00;60.00;;;;;;5078456;28;20056;-48
2022/06/26 04:22:01;;;;;;;3.97;1.50;;;21.00;60.00;;;;;;5082191;28;20518;-50
2022/06/26 04:24:28;;;;;;;2.28;1.27;;;21.00;60.20;;;;;;5083350;28;20067;-49
2022/06/26 04:26:56;;;;;;;3.47;1.20;;;21.00;60.30;;;;;;5081155;28;20086;-56
2022/06/26 04:29:23;;;;;;;2.95;1.67;;;21.00;60.30;;;;;;5076477;28;20044;-52
2022/06/26 04:31:52;;;;;;;4.65;1.20;;;21.00;60.30;;;;;;5075941;28;20059;-48
2022/06/26 04:34:20;;;;;;;6.38;1.35;;;21.00;60.40;;;;;;5081383;28;20051;-48
2022/06/26 04:36:47;;;;;;;11.95;6.78;;;20.90;60.40;;;;;;5081648;28;20075;-54
2022/06/26 04:39:15;;;;;;;6.00;2.63;;;21.00;60.40;;;;;;5082770;28;20056;-52
2022/06/26 04:41:42;;;;;;;2.47;1.50;;;21.00;60.30;;;;;;5079614;28;20060;-50
2022/06/26 04:44:12;;;;;;;1.42;1.20;;;20.90;60.30;;;;;;5079918;28;20048;-49
2022/06/26 04:46:41;;;;;;;2.05;1.27;;;20.90;60.20;;;;;;5082100;28;20909;-53
2022/06/26 04:49:10;;;;;;;2.00;1.15;;;20.90;60.20;;;;;;5082272;28;20060;-49
2022/06/26 04:51:37;;;;;;;1.83;1.35;;;20.90;60.40;;;;;;5080953;28;20059;-50
2022/06/26 04:54:06;;;;;;;2.03;1.80;;;20.90;60.50;;;;;;5081250;28;20055;-50
2022/06/26 04:56:33;;;;;;;3.28;1.58;;;20.90;60.90;;;;;;5081019;28;20051;-51
2022/06/26 04:59:01;;;;;;;4.72;1.77;;;20.80;61.00;;;;;;5080831;28;20059;-49
2022/06/26 05:01:29;;;;;;;3.05;1.60;;;20.90;61.20;;;;;;5080217;28;20406;-48
2022/06/26 05:03:57;;;;;;;2.88;1.75;;;20.80;61.40;;;;;;5078932;28;20400;-50
2022/06/26 05:06:26;;;;;;;1.98;1.70;;;20.90;61.70;;;;;;5082076;28;20063;-51
2022/06/26 05:08:53;;;;;;;3.63;2.10;;;20.90;61.80;;;;;;5081326;28;20487;-51
2022/06/26 05:11:21;;;;;;;5.15;2.53;;;20.90;61.90;;;;;;5082093;28;20059;-53
2022/06/26 05:13:48;;;;;;;4.55;2.50;;;20.90;62.30;;;;;;5079905;28;20052;-52
2022/06/26 05:16:16;;;;;;;5.28;2.33;;;21.00;62.50;;;;;;5080541;28;20066;-50
2022/06/26 05:18:43;;;;;;;3.03;1.75;;;21.00;62.50;;;;;;5080052;28;20056;-52
2022/06/26 05:21:11;;;;;;;4.85;2.40;;;21.00;62.40;;;;;;5081452;28;20054;-48
2022/06/26 05:23:40;;;;;;;6.18;2.80;;;21.00;62.60;;;;;;5083584;28;20071;-55
2022/06/26 05:26:07;;;;;;;5.93;3.45;;;21.00;63.10;;;;;;5077199;28;20056;-51
2022/06/26 05:28:35;;;;;;;10.93;3.55;;;21.00;63.60;;;;;;5080261;28;20052;-49
2022/06/26 05:31:02;;;;;;;6.78;3.38;;;21.00;64.20;;;;;;5076597;28;20225;-50
2022/06/26 05:33:30;;;;;;;8.32;3.85;;;20.90;64.80;;;;;;5078260;28;20479;-56
2022/06/26 05:35:57;;;;;;;7.68;4.55;;;20.90;65.30;;;;;;5079992;28;20044;-53
2022/06/26 05:38:25;;;;;;;6.13;4.60;;;20.80;64.80;;;;;;5077517;28;20063;-52
2022/06/26 05:40:53;;;;;;;10.10;4.45;;;20.80;65.00;;;;;;5076465;28;20052;-54
2022/06/26 05:43:21;;;;;;;8.32;3.58;;;20.80;65.30;;;;;;5078369;28;20052;-56
2022/06/26 05:45:48;;;;;;;7.95;3.90;;;20.70;65.20;;;;;;5078130;28;20078;-53
2022/06/26 05:48:16;;;;;;;7.60;4.10;;;20.80;65.60;;;;;;5076943;28;20063;-51
2022/06/26 05:50:44;;;;;;;9.23;3.63;;;20.70;65.10;;;;;;5077108;28;20063;-55
2022/06/26 05:53:11;;;;;;;8.75;3.70;;;20.70;65.10;;;;;;5080253;28;20059;-56
2022/06/26 05:55:39;;;;;;;8.60;3.40;;;20.70;65.30;;;;;;5075328;28;20056;-53
2022/06/26 05:58:08;;;;;;;6.53;3.40;;;20.70;65.40;;;;;;5078664;28;20491;-55
2022/06/26 06:00:36;;;;;;;5.53;3.20;;;20.60;65.60;;;;;;5074945;28;20062;-57
2022/06/26 06:03:04;;;;;;;9.32;2.55;;;20.70;65.70;;;;;;5075696;28;20083;-54
2022/06/26 06:05:32;;;;;;;4.93;2.25;;;20.60;65.00;;;;;;5079083;28;20047;-49
2022/06/26 06:08:00;;;;;;;2.75;1.90;;;20.60;64.50;;;;;;5079502;28;20063;-54
2022/06/26 06:10:30;;;;;;;6.90;2.10;;;20.50;63.60;;;;;;5077642;28;20060;-55
2022/06/26 06:12:58;;;;;;;5.40;1.60;;;20.50;62.50;;;;;;5081096;28;20051;-51
2022/06/26 06:15:27;;;;;;;4.85;1.88;;;20.50;62.10;;;;;;5078244;28;20048;-51
2022/06/26 06:17:54;;;;;;;3.10;1.50;;;20.40;61.70;;;;;;5081842;28;20048;-50
2022/06/26 06:20:24;;;;;;;3.50;1.50;;;20.40;61.50;;;;;;5078773;28;20411;-50
2022/06/26 06:22:54;;;;;;;3.70;1.67;;;20.30;61.30;;;;;;5078388;28;20055;-55
2022/06/26 06:25:23;;;;;;;2.38;1.10;;;20.30;61.50;;;;;;5080406;28;20048;-54
2022/06/26 06:27:50;;;;;;;2.67;1.30;;;20.20;61.80;;;;;;5079791;28;20071;-51
2022/06/26 06:30:19;;;;;;;4.78;1.48;;;20.30;62.50;;;;;;5075588;28;20056;-55
2022/06/26 06:32:48;;;;;;;3.58;1.60;;;20.20;63.00;;;;;;5083424;28;20059;-54
2022/06/26 06:35:15;;;;;;;3.70;1.60;;;20.20;63.10;;;;;;5085888;28;20434;-51
2022/06/26 06:37:44;;;;;;;3.25;1.52;;;20.30;63.30;;;;;;5083244;28;20056;-53
2022/06/26 06:40:13;;;;;;;5.25;1.92;;;20.30;63.60;;;;;;5085250;28;20055;-52
2022/06/26 06:42:41;;;;;;;2.75;1.42;;;20.30;63.40;;;;;;5083519;28;20056;-54
2022/06/26 06:45:10;;;;;;;3.13;1.38;;;20.40;63.40;;;;;;5080804;28;20051;-51
2022/06/26 06:47:38;;;;;;;3.03;1.65;;;20.40;63.50;;;;;;5084524;28;20419;-54
2022/06/26 06:50:07;;;;;;;8.95;1.77;;;20.40;63.20;;;;;;5083841;28;20062;-50
2022/06/26 06:52:35;;;;;;;3.45;1.50;;;20.50;63.20;;;;;;5081048;28;20048;-51
2022/06/26 06:55:03;;;;;;;2.97;1.60;;;20.50;63.40;;;;;;5085522;28;20506;-53
2022/06/26 06:57:31;;;;;;;2.38;1.40;;;20.60;63.00;;;;;;5083654;28;21760;-52
2022/06/26 06:59:58;;;;;;;10.63;1.88;;;20.70;62.70;;;;;;5081174;28;20052;-57
2022/06/26 07:02:26;;;;;;;3.13;1.88;;;20.70;62.70;;;;;;5081243;28;20083;-51
2022/06/26 07:04:53;;;;;;;4.60;1.77;;;20.80;62.30;;;;;;5083849;28;20052;-53
2022/06/26 07:07:22;;;;;;;4.25;1.90;;;20.90;62.60;;;;;;5083985;28;20063;-54
2022/06/26 07:09:50;;;;;;;4.85;1.63;;;20.90;62.50;;;;;;5084314;28;20059;-57
2022/06/26 07:12:17;;;;;;;3.92;2.53;;;21.00;61.90;;;;;;5079105;28;20071;-53
2022/06/26 07:14:44;;;;;;;11.32;6.03;;;21.00;60.60;;;;;;5082057;28;20048;-54
2022/06/26 07:17:13;;;;;;;5.75;3.30;;;21.00;60.60;;;;;;5083016;28;20057;-56
2022/06/26 07:19:41;;;;;;;8.88;4.13;;;21.00;59.90;;;;;;5080896;28;20052;-53
2022/06/26 07:22:08;;;;;;;10.15;3.20;;;21.00;60.00;;;;;;5079806;28;20060;-53
2022/06/26 07:24:38;;;;;;;5.13;2.83;;;21.00;60.30;;;;;;5081212;28;20502;-51
2022/06/26 07:27:07;;;;;;;4.07;2.70;;;21.00;59.60;;;;;;5082963;28;20067;-53
2022/06/26 07:29:35;;;;;;;7.30;2.75;;;20.90;59.60;;;;;;5082493;28;20056;-56
2022/06/26 07:32:02;;;;;;;12.30;3.08;;;20.90;59.60;;;;;;5081590;28;20052;-50
2022/06/26 07:34:30;;;;;;;4.38;2.70;;;20.90;59.90;;;;;;5082386;28;20063;-54
2022/06/26 07:36:57;;;;;;;5.38;2.65;;;20.90;59.90;;;;;;5083029;28;20048;-57
2022/06/26 07:39:25;;;;;;;6.40;3.13;;;20.90;59.90;;;;;;5084532;28;20052;-56
2022/06/26 07:41:54;;;;;;;4.85;3.00;;;20.90;59.90;;;;;;5080989;28;20047;-56
2022/06/26 07:44:22;;;;;;;7.55;3.17;;;20.90;60.00;;;;;;5078994;28;20499;-56
2022/06/26 07:46:50;;;;;;;7.18;2.67;;;20.90;60.20;;;;;;5079353;28;20421;-53
2022/06/26 07:49:17;;;;;;;8.75;2.95;;;20.90;59.80;;;;;;5079460;28;20055;-51
2022/06/26 07:51:45;;;;;;;4.95;3.00;;;20.90;60.00;;;;;;5080694;28;20483;-56
2022/06/26 07:54:13;;;;;;;7.05;2.90;;;20.80;60.00;;;;;;5080100;28;20052;-55
2022/06/26 07:56:40;;;;;;;5.75;2.65;;;20.90;60.00;;;;;;5081302;28;20534;-49
2022/06/26 07:59:09;;;;;;;3.97;2.33;;;20.90;60.10;;;;;;5081438;28;20511;-55
2022/06/26 08:01:37;;;;;;;7.25;2.88;;;20.90;60.10;;;;;;5081410;28;20055;-52
2022/06/26 08:04:06;;;;;;;5.82;2.55;;;20.90;59.80;;;;;;5082506;28;20052;-55
2022/06/26 08:06:34;;;;;;;6.07;2.38;;;20.90;60.00;;;;;;5081770;28;20051;-56
2022/06/26 08:09:02;;;;;;;3.78;2.15;;;20.90;59.90;;;;;;5083562;28;20059;-52
2022/06/26 08:11:29;;;;;;;7.80;2.33;;;20.90;60.10;;;;;;5081226;28;20060;-55
2022/06/26 08:13:56;;;;;;;3.88;2.08;;;20.90;60.00;;;;;;5081544;28;20060;-52
2022/06/26 08:16:25;;;;;;;4.63;2.42;;;20.90;60.30;;;;;;5080224;28;20056;-51
2022/06/26 08:18:53;;;;;;;4.30;2.28;;;20.90;60.20;;;;;;5082245;28;20052;-52
2022/06/26 08:24:06;;;;;;;4.53;2.45;;;20.90;60.30;;;;;;5077670;28;20060;-54
2022/06/26 08:26:33;;;;;;;5.03;2.40;;;20.90;59.90;;;;;;5066109;28;20056;-53
2022/06/26 08:29:01;;;;;;;4.47;2.33;;;20.90;59.60;;;;;;5064500;28;20063;-57
2022/06/26 08:31:30;;;;;;;4.35;2.20;;;20.90;59.60;;;;;;5065968;28;20048;-57
2022/06/26 08:33:57;;;;;;;5.13;2.22;;;20.90;59.60;;;;;;5066294;28;20051;-55
2022/06/26 08:36:25;;;;;;;3.45;2.05;;;20.90;59.60;;;;;;5069673;28;20063;-52
2022/06/26 08:38:52;;;;;;;6.07;2.30;;;20.90;59.90;;;;;;5067807;28;20534;-53
2022/06/26 08:41:24;;;;;;;5.18;2.13;;;20.80;59.80;;;;;;5069819;28;20063;-56
2022/06/26 08:43:53;;;;;;;6.05;2.20;;;20.80;59.90;;;;;;5067553;28;20511;-54
2022/06/26 08:46:25;;;;;;;5.95;2.10;;;20.80;60.00;;;;;;5067637;28;20403;-56
2022/06/26 08:48:57;;;;;;;3.05;1.90;;;20.70;59.90;;;;;;5067186;28;20065;-52
2022/06/26 08:51:25;;;;;;;3.45;2.03;;;20.70;61.00;;;;;;5067796;28;20044;-53
2022/06/26 08:53:54;;;;;;;5.93;2.22;;;20.70;60.40;;;;;;5067944;28;20056;-57
2022/06/26 08:56:21;;;;;;;7.10;2.33;;;20.70;59.90;;;;;;5070822;28;20044;-56
2022/06/26 08:58:49;;;;;;;5.38;1.70;;;20.70;60.00;;;;;;5065734;28;20056;-56
2022/06/26 09:01:16;;;;;;;5.03;1.90;;;20.70;59.30;;;;;;5068842;28;20052;-54
2022/06/26 09:03:44;;;;;;;2.88;1.52;;;20.60;58.70;;;;;;5068157;28;20514;-52
2022/06/26 09:06:12;;;;;;;3.92;1.55;;;20.60;59.00;;;;;;5062793;28;20063;-51
2022/06/26 09:08:44;;;;;;;3.88;1.70;;;20.60;58.40;;;;;;5072459;28;20048;-50
2022/06/26 09:11:12;;;;;;;5.22;1.70;;;20.70;58.10;;;;;;5073584;28;20408;-54
2022/06/26 09:13:41;;;;;;;3.17;1.40;;;20.70;57.90;;;;;;5072381;28;20491;-55
2022/06/26 09:16:08;;;;;;;4.40;1.60;;;20.70;57.30;;;;;;5069243;28;20492;-57
2022/06/26 09:18:37;;;;;;;4.40;1.50;;;20.70;57.20;;;;;;5067139;28;20514;-54
2022/06/26 09:21:06;;;;;;;5.10;1.40;;;20.80;56.60;;;;;;5060851;28;20047;-56
2022/06/26 09:23:36;;;;;;;4.22;1.63;;;20.80;56.00;;;;;;5065480;28;20491;-57
2022/06/26 09:26:04;;;;;;;4.18;1.77;;;20.90;56.30;;;;;;5073643;28;20063;-54
2022/06/26 09:28:32;;;;;;;3.97;1.48;;;21.00;56.70;;;;;;5064502;28;20055;-58
2022/06/26 09:31:01;;;;;;;4.18;1.30;;;21.00;57.30;;;;;;5066030;28;20052;-58
2022/06/26 09:33:30;;;;;;;2.30;1.30;;;21.10;57.30;;;;;;5065975;28;20048;-55
2022/06/26 09:35:59;;;;;;;1.73;1.20;;;21.20;58.00;;;;;;5069969;28;20051;-49
2022/06/26 09:38:28;;;;;;;2.00;1.00;;;21.30;57.20;;;;;;5065178;28;20617;-57
2022/06/26 09:40:58;;;;;;;1.42;0.93;;;21.40;57.10;;;;;;5066306;28;20072;-57
2022/06/26 09:43:27;;;;;;;2.92;1.50;;;21.50;57.30;;;;;;5066373;28;20048;-54
2022/06/26 09:45:55;;;;;;;1.63;1.25;;;21.60;57.40;;;;;;5066789;28;20056;-57
2022/06/26 09:48:24;;;;;;;2.53;1.10;;;21.70;56.10;;;;;;5066508;28;20062;-53
2022/06/26 09:50:52;;;;;;;4.28;1.20;;;21.90;56.40;;;;;;5066410;28;20063;-56
2022/06/26 09:53:21;;;;;;;2.25;1.30;;;21.90;56.40;;;;;;5067448;28;20063;-57
2022/06/26 09:55:49;;;;;;;6.30;1.45;;;22.10;55.90;;;;;;5068700;28;20044;-55
2022/06/26 09:58:19;;;;;;;3.05;1.30;;;22.10;54.50;;;;;;5067281;28;20507;-55
2022/06/26 10:06:25;;;;;;;3.95;1.70;;;22.20;55.10;;;;;;5063065;28;20051;-57
2022/06/26 10:06:27;;;;;;;4.30;1.70;;;22.40;55.00;;;;;;5064697;28;20059;-57
2022/06/26 10:08:56;;;;;;;3.85;2.17;;;22.50;54.80;;;;;;5067494;28;20063;-52
2022/06/26 10:11:25;;;;;;;2.08;1.60;;;22.50;54.00;;;;;;5078603;28;20059;-58
2022/06/26 10:13:57;;;;;;;6.68;1.70;;;22.50;54.00;;;;;;5072518;28;20063;-54
2022/06/26 10:16:48;;;;;;;2.92;1.60;;;22.50;53.90;;;;;;5070323;28;20055;-50
2022/06/26 10:19:28;;;;;;;5.05;1.65;;;22.60;53.70;;;;;;5067556;28;20059;-57
2022/06/26 10:21:56;;;;;;;2.42;1.40;;;22.60;53.30;;;;;;5069371;28;20052;-56
2022/06/26 10:24:24;;;;;;;4.65;1.60;;;22.50;53.80;;;;;;5072850;28;20055;-57
2022/06/26 10:26:56;;;;;;;1.98;1.55;;;22.60;54.20;;;;;;5071524;28;20052;-51
2022/06/26 10:29:36;;;;;;;2.83;1.50;;;22.70;54.20;;;;;;5070764;28;20056;-56
2022/06/26 10:32:04;;;;;;;4.85;2.20;;;22.80;53.80;;;;;;5069529;28;20051;-56
2022/06/26 10:34:31;;;;;;;1.75;1.50;;;22.80;53.10;;;;;;5071662;28;20048;-52
2022/06/26 10:37:05;;;;;;;2.05;1.50;;;22.90;52.80;;;;;;5072224;28;20056;-54
2022/06/26 10:39:45;;;;;;;7.18;1.90;;;22.90;52.40;;;;;;5072259;28;20487;-55
2022/06/26 10:45:07;;;;;;;2.88;1.35;;;22.90;53.30;;;;;;5069643;28;20058;-56
2022/06/26 10:47:46;;;;;;;2.28;1.38;;;23.00;53.50;;;;;;5070768;28;20052;-54
2022/06/26 10:50:24;;;;;;;5.25;1.73;;;23.00;53.50;;;;;;5070317;28;20044;-55
2022/06/26 10:52:52;;;;;;;2.83;1.45;;;23.00;52.80;;;;;;5069686;28;20627;-55
2022/06/26 10:55:19;;;;;;;4.38;1.80;;;23.10;52.30;;;;;;5073794;28;20055;-57
2022/06/26 10:57:49;;;;;;;2.05;1.10;;;23.10;53.00;;;;;;5069263;28;20049;-54
2022/06/26 11:00:19;;;;;;;2.90;1.60;;;23.10;52.30;;;;;;5069564;28;20694;-58
2022/06/26 11:02:47;;;;;;;2.15;1.20;;;23.20;52.20;;;;;;5071013;28;20059;-56
2022/06/26 11:05:14;;;;;;;1.23;0.95;;;23.20;52.10;;;;;;5073254;28;20052;-54
2022/06/26 11:07:44;;;;;;;2.35;1.45;;;23.30;52.80;;;;;;5070542;28;20056;-57
2022/06/26 11:10:16;;;;;;;2.30;1.20;;;23.40;53.10;;;;;;5071743;28;20415;-52
2022/06/26 11:12:45;;;;;;;2.03;1.00;;;23.40;52.70;;;;;;5065726;28;20052;-56
2022/06/26 11:15:27;;;;;;;1.63;1.10;;;23.60;52.40;;;;;;5068984;28;20051;-55
2022/06/26 11:17:59;;;;;;;2.42;1.23;;;23.70;51.70;;;;;;5067956;28;20063;-58
2022/06/26 11:23:18;;;;;;;4.25;1.45;;;23.70;51.40;;;;;;5071179;28;20058;-52
2022/06/26 11:25:47;;;;;;;3.45;1.52;;;23.70;50.40;;;;;;5069629;28;20051;-53
2022/06/26 11:28:16;;;;;;;2.42;1.35;;;23.70;50.60;;;;;;5070466;28;20055;-56
2022/06/26 11:30:47;;;;;;;2.85;1.38;;;23.60;51.50;;;;;;5067061;28;20590;-52
2022/06/26 11:33:22;;;;;;;3.88;1.20;;;23.60;51.20;;;;;;5069903;28;20056;-57
2022/06/26 11:35:49;;;;;;;3.50;1.52;;;23.60;51.00;;;;;;5068843;28;20067;-55
2022/06/26 11:38:18;;;;;;;3.88;1.25;;;23.60;51.20;;;;;;5065885;28;20052;-56
2022/06/26 11:40:47;;;;;;;2.75;1.42;;;23.70;51.10;;;;;;5072181;28;20447;-58
2022/06/26 11:43:15;;;;;;;2.65;1.10;;;23.70;50.30;;;;;;5067338;28;20056;-51
2022/06/26 11:45:43;;;;;;;1.75;1.30;;;23.70;50.90;;;;;;5067634;28;20052;-57
2022/06/26 11:48:16;;;;;;;2.67;1.20;;;23.70;50.50;;;;;;5069840;28;20048;-54
2022/06/26 11:50:45;;;;;;;4.35;0.93;;;23.70;50.20;;;;;;5070744;28;20055;-55
2022/06/26 11:53:23;;;;;;;2.65;1.50;;;23.80;50.40;;;;;;5080675;28;20419;-58
2022/06/26 11:55:53;;;;;;;3.78;1.40;;;23.80;50.70;;;;;;5083326;28;20044;-54
2022/06/26 11:58:23;;;;;;;1.90;1.20;;;23.90;50.60;;;;;;5079364;28;20087;-53
2022/06/26 12:00:51;;;;;;;1.33;0.95;;;23.90;50.50;;;;;;5083442;28;20048;-54
2022/06/26 12:03:20;;;;;;;1.13;0.88;;;23.90;51.00;;;;;;5083970;28;20052;-52
2022/06/26 12:05:48;;;;;;;2.78;1.10;;;24.00;51.00;;;;;;5083093;28;20055;-52
2022/06/26 12:08:18;;;;;;;2.83;1.40;;;24.00;51.40;;;;;;5083173;28;20044;-56
2022/06/26 12:10:50;;;;;;;2.58;1.00;;;24.00;51.60;;;;;;5083068;28;20059;-56
2022/06/26 12:13:22;;;;;;;2.92;1.17;;;24.10;52.00;;;;;;5082535;28;20390;-53
2022/06/26 12:15:50;;;;;;;2.53;1.20;;;24.10;51.90;;;;;;5080562;28;20052;-52
2022/06/26 12:18:17;;;;;;;1.67;0.93;;;24.20;51.70;;;;;;5082177;28;20122;-58
2022/06/26 12:20:50;;;;;;;1.08;0.90;;;24.20;51.60;;;;;;5081738;28;20052;-56
2022/06/26 12:23:18;;;;;;;2.75;1.13;;;24.30;51.40;;;;;;5081753;28;20400;-53
2022/06/26 12:25:49;;;;;;;2.22;1.42;;;24.30;51.10;;;;;;5083194;28;20051;-54
2022/06/26 12:28:24;;;;;;;2.08;1.15;;;24.30;50.90;;;;;;5080414;28;20048;-52
2022/06/26 12:30:51;;;;;;;1.80;1.05;;;24.30;50.20;;;;;;5080056;28;20434;-50
2022/06/26 12:33:19;;;;;;;1.77;1.23;;;24.30;50.20;;;;;;5079248;28;20048;-51
2022/06/26 12:35:48;;;;;;;1.42;1.30;;;24.20;50.20;;;;;;5081196;28;20052;-52
2022/06/26 12:38:21;;;;;;;1.02;0.88;;;24.20;50.30;;;;;;5078519;28;20044;-58
2022/06/26 12:40:48;;;;;;;7.45;1.40;;;24.20;50.30;;;;;;5077053;28;20052;-50
2022/06/26 12:43:18;;;;;;;4.03;1.08;;;24.10;50.00;;;;;;5075685;28;20051;-55
2022/06/26 12:45:46;;;;;;;1.75;1.10;;;24.10;50.10;;;;;;5079233;28;20888;-54
2022/06/26 12:48:13;;;;;;;2.38;1.20;;;24.00;50.20;;;;;;5078964;28;20051;-58
2022/06/26 12:50:41;;;;;;;3.20;1.20;;;24.00;50.60;;;;;;5071618;28;20345;-55
2022/06/26 12:53:10;;;;;;;3.13;1.30;;;23.90;50.60;;;;;;5066562;28;20070;-55
2022/06/26 12:55:38;;;;;;;1.98;1.17;;;23.80;50.70;;;;;;5069182;28;20067;-56
2022/06/26 12:58:05;;;;;;;1.63;1.45;;;23.80;50.80;;;;;;5064854;28;20052;-54
2022/06/26 13:00:33;;;;;;;2.22;1.23;;;23.70;50.90;;;;;;5077057;28;20062;-50
2022/06/26 13:03:00;;;;;;;2.60;1.23;;;23.70;51.70;;;;;;5080682;28;20064;-50
2022/06/26 13:05:28;;;;;;;1.90;1.50;;;23.60;52.50;;;;;;5081441;28;20067;-55